Time;durP1;ratioP1;P1;durP2;ratioP2;P2;SDS_P1;SDS_P2;PMS_P1;PMS_P2;Temp;Humidity;BMP_temperature;BMP_pressure;BME280_temperature;BME280_humidity;BME280_pressure;Samples;Min_cycle;Max_cycle;Signal;HPM_P1;HPM_P2
2021/01/30 00:00:08;;;;;;;2.97;2.43;;;7.30;99.90;;;;;;5088285;28;20526;-69
2021/01/30 00:02:34;;;;;;;7.37;3.10;;;7.30;99.90;;;;;;5101102;28;20222;-69
2021/01/30 00:05:00;;;;;;;6.10;3.30;;;7.30;99.90;;;;;;5092660;27;20460;-69
2021/01/30 00:07:26;;;;;;;10.07;4.13;;;7.30;99.90;;;;;;5093636;28;20219;-70
2021/01/30 00:09:52;;;;;;;9.03;4.70;;;7.30;99.90;;;;;;5110312;27;20842;-69
2021/01/30 00:12:18;;;;;;;10.67;5.00;;;7.30;99.90;;;;;;5111217;27;20448;-69
2021/01/30 00:14:44;;;;;;;6.73;3.57;;;7.30;99.90;;;;;;5109070;27;20227;-69
2021/01/30 00:17:10;;;;;;;10.30;4.13;;;7.20;99.90;;;;;;5089917;28;20464;-69
2021/01/30 00:19:37;;;;;;;6.40;3.77;;;7.30;99.90;;;;;;5105105;28;20226;-69
2021/01/30 00:22:06;;;;;;;7.63;3.50;;;7.20;99.90;;;;;;5092407;28;20457;-69
2021/01/30 00:24:32;;;;;;;8.33;3.63;;;7.20;99.90;;;;;;5081298;28;20455;-69
2021/01/30 00:27:01;;;;;;;6.13;3.07;;;7.20;99.90;;;;;;5067713;28;20450;-69
2021/01/30 00:29:30;;;;;;;5.00;3.07;;;7.20;99.90;;;;;;5074848;28;20247;-69
2021/01/30 00:31:56;;;;;;;5.07;3.37;;;7.10;99.90;;;;;;5093619;28;20441;-69
2021/01/30 00:34:24;;;;;;;11.33;5.60;;;7.20;99.90;;;;;;5073438;28;20485;-69
2021/01/30 00:36:55;;;;;;;10.90;4.57;;;7.10;99.90;;;;;;5104996;27;20214;-69
2021/01/30 00:39:21;;;;;;;8.30;4.33;;;7.10;99.90;;;;;;5088205;28;20459;-69
2021/01/30 00:41:47;;;;;;;6.30;3.63;;;7.10;99.90;;;;;;5099979;28;20465;-69
2021/01/30 00:44:14;;;;;;;5.10;3.50;;;7.10;99.90;;;;;;5102551;28;20848;-69
2021/01/30 00:46:40;;;;;;;9.50;5.37;;;7.10;99.90;;;;;;5072978;28;20236;-69
2021/01/30 00:49:06;;;;;;;8.53;4.43;;;7.00;99.90;;;;;;5049147;27;20444;-69
2021/01/30 00:51:32;;;;;;;7.13;4.03;;;7.00;99.90;;;;;;5107785;28;20230;-69
2021/01/30 00:54:00;;;;;;;4.30;2.60;;;7.00;99.90;;;;;;5107013;27;20447;-69
2021/01/30 00:56:26;;;;;;;8.60;4.10;;;7.00;99.90;;;;;;5058733;28;20452;-69
2021/01/30 00:58:52;;;;;;;8.57;5.00;;;7.00;99.90;;;;;;5057215;27;20532;-69
2021/01/30 01:01:18;;;;;;;6.13;3.93;;;7.00;99.90;;;;;;5075177;28;20313;-69
2021/01/30 01:03:44;;;;;;;11.70;4.80;;;7.00;99.90;;;;;;5084266;27;20292;-69
2021/01/30 01:06:10;;;;;;;11.93;4.90;;;7.00;99.90;;;;;;5059233;28;20475;-69
2021/01/30 01:08:36;;;;;;;4.67;3.87;;;7.00;99.90;;;;;;5088841;28;20226;-69
2021/01/30 01:11:02;;;;;;;4.20;2.27;;;7.00;99.90;;;;;;5074878;27;20233;-69
2021/01/30 01:13:28;;;;;;;9.10;2.80;;;7.00;99.90;;;;;;5108918;28;20215;-69
2021/01/30 01:15:55;;;;;;;7.07;2.87;;;7.00;99.90;;;;;;5088498;28;20528;-68
2021/01/30 01:18:21;;;;;;;6.90;3.10;;;6.90;99.90;;;;;;5080160;28;20526;-68
2021/01/30 01:20:47;;;;;;;7.80;4.00;;;6.90;99.90;;;;;;5089449;28;20472;-69
2021/01/30 01:23:13;;;;;;;9.20;3.80;;;6.90;99.90;;;;;;5090767;28;20952;-69
2021/01/30 01:25:39;;;;;;;5.37;3.23;;;6.90;99.90;;;;;;5079289;28;20225;-69
2021/01/30 01:28:17;;;;;;;2.70;2.30;;;6.90;99.90;;;;;;5112443;27;20437;-69
2021/01/30 01:30:42;;;;;;;5.97;2.80;;;6.90;99.90;;;;;;5096325;28;20233;-69
2021/01/30 01:33:08;;;;;;;6.87;3.53;;;6.90;99.90;;;;;;5078677;28;20449;-69
2021/01/30 01:35:34;;;;;;;5.40;2.57;;;6.90;99.90;;;;;;5096635;28;20336;-69
2021/01/30 01:38:00;;;;;;;9.33;5.17;;;6.90;99.90;;;;;;5062447;27;20218;-69
2021/01/30 01:40:30;;;;;;;7.27;4.70;;;6.90;99.90;;;;;;5112670;28;20214;-69
2021/01/30 01:42:58;;;;;;;4.90;3.07;;;6.80;99.90;;;;;;5096189;28;20618;-69
2021/01/30 01:45:24;;;;;;;3.37;2.50;;;6.80;99.90;;;;;;5096117;28;20980;-69
2021/01/30 01:47:49;;;;;;;1.63;1.47;;;6.80;99.90;;;;;;5112751;27;20464;-68
2021/01/30 01:50:24;;;;;;;1.70;1.60;;;6.80;99.90;;;;;;5111285;28;20222;-68
2021/01/30 01:52:51;;;;;;;2.10;1.90;;;6.80;99.90;;;;;;5112131;27;20221;-69
2021/01/30 01:55:20;;;;;;;2.13;1.83;;;6.80;99.90;;;;;;5112958;28;20452;-68
2021/01/30 01:57:53;;;;;;;2.73;1.77;;;6.80;99.90;;;;;;5095245;27;20452;-68
2021/01/30 02:00:21;;;;;;;1.60;1.50;;;6.80;99.90;;;;;;5112309;28;20520;-69
2021/01/30 02:02:48;;;;;;;2.80;1.40;;;6.80;99.90;;;;;;5095492;27;20547;-68
2021/01/30 02:05:31;;;;;;;0.87;0.87;;;6.80;99.90;;;;;;5096291;28;20449;-68
2021/01/30 02:08:01;;;;;;;1.53;1.43;;;6.80;99.90;;;;;;5065271;27;20851;-69
2021/01/30 02:10:29;;;;;;;1.50;1.40;;;6.80;99.90;;;;;;5111809;28;20549;-69
2021/01/30 02:13:01;;;;;;;1.70;0.97;;;6.80;99.90;;;;;;5062018;27;20481;-68
2021/01/30 02:15:27;;;;;;;1.77;0.90;;;6.90;99.90;;;;;;5096350;28;20885;-68
2021/01/30 02:18:17;;;;;;;1.00;0.90;;;6.80;99.90;;;;;;5095046;27;20543;-68
2021/01/30 02:21:14;;;;;;;0.93;0.90;;;6.90;99.90;;;;;;5095310;28;20519;-68
2021/01/30 02:23:56;;;;;;;1.27;1.20;;;6.90;99.90;;;;;;5112281;28;20456;-68
2021/01/30 02:26:28;;;;;;;1.90;1.10;;;6.90;99.90;;;;;;5081748;28;21021;-68
2021/01/30 02:29:13;;;;;;;2.83;0.90;;;6.90;99.90;;;;;;5098370;28;20453;-68
2021/01/30 02:31:50;;;;;;;4.93;1.00;;;6.90;99.90;;;;;;5082456;28;20460;-68
2021/01/30 02:34:33;;;;;;;1.17;0.70;;;6.90;99.90;;;;;;5093664;28;20833;-69
2021/01/30 02:37:08;;;;;;;0.90;0.73;;;6.90;99.90;;;;;;5091284;28;20449;-68
2021/01/30 02:39:57;;;;;;;0.83;0.83;;;6.90;99.90;;;;;;5075610;28;20982;-68
2021/01/30 02:42:29;;;;;;;0.60;0.60;;;6.90;99.90;;;;;;5111737;28;20478;-68
2021/01/30 02:45:11;;;;;;;1.27;0.63;;;7.00;99.90;;;;;;5094720;27;20455;-68
2021/01/30 02:47:42;;;;;;;3.00;1.03;;;6.90;99.90;;;;;;5098138;28;20460;-68
2021/01/30 02:50:21;;;;;;;1.37;1.00;;;6.90;99.90;;;;;;5080674;28;20461;-68
2021/01/30 02:52:50;;;;;;;1.27;0.90;;;7.00;99.90;;;;;;5047136;28;20503;-69
2021/01/30 02:55:18;;;;;;;0.70;0.70;;;7.00;99.90;;;;;;5091295;28;20453;-68
2021/01/30 02:57:45;;;;;;;1.53;0.70;;;7.00;99.90;;;;;;5066714;28;21043;-68
2021/01/30 03:00:15;;;;;;;0.80;0.80;;;7.00;99.90;;;;;;5110040;28;20792;-69
2021/01/30 03:02:41;;;;;;;0.60;0.60;;;7.00;99.90;;;;;;5112856;28;20550;-68
2021/01/30 03:05:09;;;;;;;0.60;0.50;;;7.00;99.90;;;;;;5080205;27;20441;-68
2021/01/30 03:07:48;;;;;;;0.73;0.70;;;7.00;99.90;;;;;;5094656;28;20453;-68
2021/01/30 03:10:47;;;;;;;2.53;0.80;;;7.00;99.90;;;;;;5093974;28;20492;-68
2021/01/30 03:13:26;;;;;;;0.90;0.90;;;7.00;99.90;;;;;;5091208;28;20459;-68
2021/01/30 03:16:06;;;;;;;0.83;0.80;;;7.00;99.90;;;;;;5111805;27;20539;-68
2021/01/30 03:18:51;;;;;;;1.47;0.77;;;7.00;99.90;;;;;;5094477;28;20464;-68
2021/01/30 03:21:17;;;;;;;3.70;0.83;;;7.00;99.90;;;;;;5110850;28;20452;-68
2021/01/30 03:23:43;;;;;;;0.83;0.50;;;7.00;99.90;;;;;;5098267;28;20537;-68
2021/01/30 03:26:15;;;;;;;0.60;0.60;;;7.00;99.90;;;;;;5092756;28;20512;-69
2021/01/30 03:28:41;;;;;;;0.83;0.70;;;7.00;99.90;;;;;;5099495;28;20223;-68
2021/01/30 03:31:08;;;;;;;0.63;0.63;;;7.00;99.90;;;;;;5108064;28;21180;-69
2021/01/30 03:33:34;;;;;;;0.50;0.50;;;7.00;99.90;;;;;;5094291;28;20608;-68
2021/01/30 03:35:59;;;;;;;0.60;0.60;;;7.00;99.90;;;;;;5075546;28;20488;-68
2021/01/30 03:38:25;;;;;;;1.63;0.83;;;7.10;99.90;;;;;;5052534;28;21045;-68
2021/01/30 03:40:51;;;;;;;1.40;0.73;;;7.00;99.90;;;;;;5087561;27;20256;-68
2021/01/30 03:43:16;;;;;;;5.00;0.63;;;7.00;99.90;;;;;;5073033;28;20246;-68
2021/01/30 03:45:42;;;;;;;2.27;0.70;;;7.10;99.90;;;;;;5102913;28;20667;-68
2021/01/30 03:48:08;;;;;;;0.50;0.50;;;7.10;99.90;;;;;;5076525;28;20219;-68
2021/01/30 03:50:34;;;;;;;1.13;0.60;;;7.00;99.90;;;;;;5090440;28;20246;-69
2021/01/30 03:53:04;;;;;;;1.87;1.57;;;7.10;99.90;;;;;;5106810;28;20448;-70
2021/01/30 03:55:29;;;;;;;0.67;0.67;;;7.10;99.90;;;;;;5097195;28;20462;-69
2021/01/30 03:57:55;;;;;;;2.47;0.60;;;7.10;99.90;;;;;;5060684;27;20881;-70
2021/01/30 04:00:23;;;;;;;0.40;0.40;;;7.10;99.90;;;;;;5085078;28;20719;-70
2021/01/30 04:02:49;;;;;;;0.80;0.50;;;7.10;99.90;;;;;;5094906;27;20215;-70
2021/01/30 04:05:19;;;;;;;0.57;0.57;;;7.00;99.90;;;;;;5096311;28;20528;-70
2021/01/30 04:07:46;;;;;;;0.83;0.70;;;7.00;99.90;;;;;;5109957;27;20455;-69
2021/01/30 04:10:22;;;;;;;0.67;0.67;;;7.00;99.90;;;;;;5093007;28;20505;-70
2021/01/30 04:12:48;;;;;;;0.40;0.40;;;7.10;99.90;;;;;;5090196;27;20448;-69
2021/01/30 04:15:27;;;;;;;0.70;0.60;;;7.10;99.90;;;;;;5071343;28;20452;-68
2021/01/30 04:17:53;;;;;;;0.67;0.57;;;7.00;99.90;;;;;;5090170;27;20237;-69
2021/01/30 04:20:22;;;;;;;0.93;0.70;;;7.10;99.90;;;;;;5091376;28;20459;-68
2021/01/30 04:22:48;;;;;;;0.80;0.50;;;7.00;99.90;;;;;;5090472;27;20510;-70
2021/01/30 04:25:17;;;;;;;0.40;0.40;;;7.00;99.90;;;;;;5089993;28;20454;-69
2021/01/30 04:27:44;;;;;;;0.50;0.50;;;7.00;99.90;;;;;;5082849;27;20463;-69
2021/01/30 04:30:12;;;;;;;0.40;0.40;;;7.00;99.90;;;;;;5109720;27;20831;-69
2021/01/30 04:32:38;;;;;;;1.00;0.47;;;7.00;99.90;;;;;;5102677;28;20452;-69
2021/01/30 04:35:06;;;;;;;0.60;0.60;;;7.00;99.90;;;;;;5054998;27;20472;-68
2021/01/30 04:37:32;;;;;;;0.40;0.40;;;7.00;99.90;;;;;;5107726;28;20535;-69
2021/01/30 04:39:57;;;;;;;0.60;0.60;;;7.00;99.90;;;;;;5086375;27;20527;-70
2021/01/30 04:42:46;;;;;;;0.80;0.80;;;7.00;99.90;;;;;;5070374;28;20234;-68
2021/01/30 04:45:33;;;;;;;0.80;0.70;;;7.00;99.90;;;;;;5097450;28;20268;-69
2021/01/30 04:48:07;;;;;;;0.70;0.67;;;7.00;99.90;;;;;;5096423;28;20456;-70
2021/01/30 04:50:40;;;;;;;0.90;0.73;;;7.00;99.90;;;;;;5089221;28;20469;-68
2021/01/30 04:53:19;;;;;;;0.70;0.50;;;7.00;99.90;;;;;;5098998;27;20437;-68
2021/01/30 04:55:59;;;;;;;0.90;0.50;;;7.00;99.90;;;;;;5089302;28;20464;-68
2021/01/30 04:58:55;;;;;;;0.47;0.47;;;7.00;99.90;;;;;;5104123;28;20541;-69
2021/01/30 05:01:45;;;;;;;1.03;0.50;;;7.00;99.90;;;;;;5105772;27;20484;-68
2021/01/30 05:04:23;;;;;;;1.43;0.60;;;7.00;99.90;;;;;;5101769;28;20475;-68
2021/01/30 05:07:13;;;;;;;0.70;0.60;;;7.00;99.90;;;;;;5107202;28;20475;-70
2021/01/30 05:09:54;;;;;;;0.70;0.60;;;7.00;99.90;;;;;;5105878;28;20972;-69
2021/01/30 05:12:40;;;;;;;0.83;0.70;;;7.00;99.90;;;;;;5108958;28;20872;-69
2021/01/30 05:15:31;;;;;;;0.40;0.40;;;7.00;99.90;;;;;;5104970;27;20454;-68
2021/01/30 05:17:57;;;;;;;1.03;0.80;;;7.00;99.90;;;;;;5085132;28;20450;-69
2021/01/30 05:20:24;;;;;;;0.60;0.60;;;7.00;99.90;;;;;;5091109;28;20448;-69
2021/01/30 05:22:50;;;;;;;1.70;0.53;;;7.00;99.90;;;;;;5102769;27;20218;-69
2021/01/30 05:25:22;;;;;;;1.17;0.60;;;7.00;99.90;;;;;;5071935;28;20461;-68
2021/01/30 05:28:12;;;;;;;1.30;0.53;;;7.00;99.90;;;;;;5104575;27;20233;-69
2021/01/30 05:30:57;;;;;;;0.60;0.60;;;7.00;99.90;;;;;;5083843;28;20477;-68
2021/01/30 05:33:46;;;;;;;1.00;0.80;;;7.00;99.90;;;;;;5071341;28;20994;-68
2021/01/30 05:36:21;;;;;;;0.80;0.50;;;7.00;99.90;;;;;;5071396;28;20457;-69
2021/01/30 05:39:21;;;;;;;0.70;0.60;;;7.10;99.90;;;;;;5108364;27;20447;-69
2021/01/30 05:42:14;;;;;;;1.13;0.80;;;7.10;99.90;;;;;;5088839;28;20453;-68
2021/01/30 05:45:02;;;;;;;0.73;0.73;;;7.10;99.90;;;;;;5091838;28;20460;-68
2021/01/30 05:47:31;;;;;;;0.50;0.50;;;7.10;99.90;;;;;;5081971;28;20453;-69
2021/01/30 05:50:03;;;;;;;1.70;0.60;;;7.10;99.90;;;;;;5070992;28;20466;-68
2021/01/30 05:52:35;;;;;;;5.33;0.90;;;7.10;99.90;;;;;;5088741;28;20456;-69
2021/01/30 05:55:01;;;;;;;1.47;1.07;;;7.10;99.90;;;;;;5087621;28;20465;-69
2021/01/30 05:57:27;;;;;;;1.77;1.10;;;7.10;99.90;;;;;;5103680;27;20459;-68
2021/01/30 05:59:55;;;;;;;1.00;0.90;;;7.10;99.90;;;;;;5085270;28;20469;-69
2021/01/30 06:02:28;;;;;;;4.17;1.40;;;7.10;99.90;;;;;;5107847;28;20218;-68
2021/01/30 06:04:53;;;;;;;1.33;1.20;;;7.10;99.90;;;;;;5058428;27;20460;-68
2021/01/30 06:07:29;;;;;;;1.20;0.80;;;7.10;99.90;;;;;;5093122;28;20452;-68
2021/01/30 06:09:56;;;;;;;1.30;0.90;;;7.10;99.90;;;;;;5089002;28;20469;-69
2021/01/30 06:12:31;;;;;;;3.10;1.70;;;7.10;99.90;;;;;;5111778;28;20877;-68
2021/01/30 06:15:21;;;;;;;14.03;2.00;;;7.00;99.90;;;;;;5094603;27;20462;-70
2021/01/30 06:17:47;;;;;;;4.33;2.07;;;7.10;99.90;;;;;;5089094;27;20456;-69
2021/01/30 06:20:23;;;;;;;3.27;1.87;;;7.00;99.90;;;;;;5112437;28;20448;-70
2021/01/30 06:23:21;;;;;;;4.43;1.70;;;7.10;99.90;;;;;;5112186;28;20467;-69
2021/01/30 06:25:46;;;;;;;5.37;2.00;;;7.10;99.90;;;;;;5089446;28;20455;-70
2021/01/30 06:28:25;;;;;;;5.07;3.43;;;7.10;99.90;;;;;;5060631;28;20440;-69
2021/01/30 06:30:52;;;;;;;13.30;5.83;;;7.10;99.90;;;;;;5127432;27;20698;-69
2021/01/30 06:33:31;;;;;;;9.50;4.90;;;7.10;99.90;;;;;;5111838;28;20456;-69
2021/01/30 06:36:11;;;;;;;6.27;3.17;;;7.10;99.90;;;;;;5092191;27;20452;-70
2021/01/30 06:38:45;;;;;;;4.43;3.03;;;7.10;99.90;;;;;;5087032;28;20459;-69
2021/01/30 06:41:29;;;;;;;5.37;2.90;;;7.10;99.90;;;;;;5111480;28;20464;-69
2021/01/30 06:43:58;;;;;;;7.60;2.50;;;7.10;99.90;;;;;;5094204;27;20456;-69
2021/01/30 06:46:25;;;;;;;2.33;1.93;;;7.10;99.90;;;;;;5085290;28;20524;-69
2021/01/30 06:48:53;;;;;;;10.83;3.97;;;7.10;99.90;;;;;;5091843;27;20585;-69
2021/01/30 06:51:30;;;;;;;8.03;4.17;;;7.10;99.90;;;;;;5093887;28;20453;-69
2021/01/30 06:54:23;;;;;;;8.97;4.53;;;7.00;99.90;;;;;;5094415;27;20459;-69
2021/01/30 06:57:04;;;;;;;5.03;3.57;;;7.10;99.90;;;;;;5094707;28;20521;-69
2021/01/30 06:59:34;;;;;;;3.80;2.17;;;7.10;99.90;;;;;;5083124;28;20455;-70
2021/01/30 07:02:02;;;;;;;4.13;1.90;;;7.00;99.90;;;;;;5111039;28;20516;-70
2021/01/30 07:04:27;;;;;;;4.83;2.80;;;7.00;99.90;;;;;;5077315;28;20597;-69
2021/01/30 07:07:14;;;;;;;8.87;5.37;;;7.10;99.90;;;;;;5090148;28;20912;-69
2021/01/30 07:10:04;;;;;;;7.80;5.37;;;7.10;99.90;;;;;;5090963;28;20229;-70
2021/01/30 07:13:11;;;;;;;12.57;6.60;;;7.00;99.90;;;;;;5094465;28;20467;-70
2021/01/30 07:15:44;;;;;;;10.50;4.80;;;7.00;99.90;;;;;;5094409;28;20961;-70
2021/01/30 07:18:28;;;;;;;7.43;3.50;;;7.00;99.90;;;;;;5084948;28;20567;-69
2021/01/30 07:20:56;;;;;;;12.70;4.30;;;6.90;99.90;;;;;;5111919;27;20448;-69
2021/01/30 07:23:42;;;;;;;12.43;6.27;;;7.00;99.90;;;;;;5093344;28;20447;-69
2021/01/30 07:26:14;;;;;;;11.20;7.30;;;6.90;99.90;;;;;;5110708;28;20497;-68
2021/01/30 07:28:56;;;;;;;15.83;9.10;;;6.90;99.90;;;;;;5094029;28;20509;-69
2021/01/30 07:31:38;;;;;;;11.90;7.90;;;6.90;99.90;;;;;;5091073;28;20988;-69
2021/01/30 07:34:16;;;;;;;15.23;8.30;;;6.90;99.90;;;;;;5107200;27;20501;-69
2021/01/30 07:36:59;;;;;;;34.53;15.10;;;6.90;99.90;;;;;;5094153;28;20460;-69
2021/01/30 07:39:46;;;;;;;31.53;15.57;;;6.90;99.90;;;;;;5090447;28;20484;-69
2021/01/30 07:42:23;;;;;;;24.20;11.30;;;6.90;99.90;;;;;;5090511;28;20440;-69
2021/01/30 07:45:10;;;;;;;20.07;9.63;;;6.90;99.90;;;;;;5109714;28;20440;-69
2021/01/30 07:47:44;;;;;;;13.80;7.40;;;6.90;99.90;;;;;;5093396;28;20506;-69
2021/01/30 07:50:24;;;;;;;26.30;10.43;;;6.90;99.90;;;;;;5110635;27;20464;-69
2021/01/30 07:53:24;;;;;;;21.00;9.83;;;6.90;99.90;;;;;;5090177;27;20463;-69
2021/01/30 07:56:02;;;;;;;16.70;8.90;;;6.90;99.90;;;;;;5087887;28;20460;-70
2021/01/30 08:02:39;;;;;;;23.87;9.03;;;6.90;99.90;;;;;;5111277;27;20454;-69
2021/01/30 08:05:36;;;;;;;29.10;12.80;;;6.90;99.90;;;;;;5089579;28;20927;-69
2021/01/30 08:08:15;;;;;;;24.97;12.67;;;6.90;99.90;;;;;;5106244;27;20487;-69
2021/01/30 08:10:47;;;;;;;35.00;15.10;;;6.90;99.90;;;;;;5111614;28;20457;-71
2021/01/30 08:13:39;;;;;;;34.83;15.13;;;6.90;99.90;;;;;;5109562;28;20478;-70
2021/01/30 08:16:25;;;;;;;32.63;11.70;;;6.90;99.90;;;;;;5082156;28;20433;-70
2021/01/30 08:18:53;;;;;;;33.53;15.23;;;6.90;99.90;;;;;;5102695;27;20444;-69
2021/01/30 08:21:24;;;;;;;34.90;14.90;;;6.90;99.90;;;;;;5108224;28;20444;-69
2021/01/30 08:23:58;;;;;;;38.13;16.63;;;6.90;99.90;;;;;;5104588;27;20490;-69
2021/01/30 08:26:29;;;;;;;37.00;17.07;;;6.90;99.90;;;;;;5111197;28;20464;-69
2021/01/30 08:29:11;;;;;;;33.40;12.43;;;7.00;99.90;;;;;;5109227;28;20547;-69
2021/01/30 08:31:52;;;;;;;29.33;13.00;;;6.90;99.90;;;;;;5109931;28;20551;-70
2021/01/30 08:34:17;;;;;;;33.47;13.00;;;7.00;99.90;;;;;;5109032;28;20452;-69
2021/01/30 08:36:45;;;;;;;37.30;14.30;;;6.90;99.90;;;;;;5093085;28;20451;-70
2021/01/30 08:39:39;;;;;;;40.97;15.83;;;6.90;99.90;;;;;;5108451;28;20222;-71
2021/01/30 08:42:19;;;;;;;27.87;15.50;;;7.00;99.90;;;;;;5067461;28;20468;-68
2021/01/30 08:44:48;;;;;;;16.20;10.23;;;7.00;99.90;;;;;;5109303;28;20988;-68
2021/01/30 08:47:25;;;;;;;15.90;8.50;;;7.00;99.90;;;;;;5092821;28;20455;-68
2021/01/30 08:50:10;;;;;;;27.13;11.07;;;7.00;99.90;;;;;;5108823;28;20475;-70
2021/01/30 08:52:55;;;;;;;24.20;12.70;;;7.10;99.90;;;;;;5101220;28;20538;-71
2021/01/30 08:55:45;;;;;;;14.90;9.90;;;7.00;99.90;;;;;;5092351;28;20448;-68
2021/01/30 08:58:32;;;;;;;15.80;6.10;;;7.00;99.90;;;;;;5087430;28;20438;-68
2021/01/30 09:01:09;;;;;;;12.50;5.47;;;7.00;99.90;;;;;;5084547;28;20445;-68
2021/01/30 09:03:50;;;;;;;9.37;4.30;;;7.10;99.90;;;;;;5101598;28;20462;-69
2021/01/30 09:06:48;;;;;;;4.47;3.17;;;7.10;99.90;;;;;;5092095;28;20440;-67
2021/01/30 09:09:17;;;;;;;6.60;3.20;;;7.10;99.90;;;;;;5107525;28;20463;-69
2021/01/30 09:11:48;;;;;;;4.00;2.60;;;7.10;99.90;;;;;;5102549;28;20464;-68
2021/01/30 09:14:16;;;;;;;4.23;2.50;;;7.10;99.90;;;;;;5088863;28;20532;-68
2021/01/30 09:17:08;;;;;;;5.03;3.90;;;7.10;99.90;;;;;;5089007;28;20510;-68
2021/01/30 09:20:06;;;;;;;5.50;3.93;;;7.20;99.90;;;;;;5101481;27;20465;-69
2021/01/30 09:22:35;;;;;;;5.50;3.60;;;7.20;99.90;;;;;;5091673;28;21003;-68
2021/01/30 09:25:18;;;;;;;5.40;3.20;;;7.20;99.90;;;;;;5092196;28;20465;-68
2021/01/30 09:27:56;;;;;;;4.47;2.63;;;7.20;99.90;;;;;;5092660;28;20972;-69
2021/01/30 09:30:37;;;;;;;6.43;3.20;;;7.30;99.90;;;;;;5108209;28;20513;-69
2021/01/30 09:33:29;;;;;;;2.43;2.23;;;7.30;99.90;;;;;;5108875;27;20468;-69
2021/01/30 09:36:11;;;;;;;4.63;2.53;;;7.30;99.90;;;;;;5109183;27;20496;-68
2021/01/30 09:38:40;;;;;;;11.00;5.73;;;7.30;99.90;;;;;;5108512;28;20973;-69
2021/01/30 09:41:22;;;;;;;20.20;9.30;;;7.30;99.90;;;;;;5108665;27;20449;-68
2021/01/30 09:44:01;;;;;;;12.90;6.73;;;7.30;99.90;;;;;;5091873;28;20459;-68
2021/01/30 09:46:31;;;;;;;10.13;5.50;;;7.30;99.90;;;;;;5095783;28;20501;-69
2021/01/30 09:48:57;;;;;;;10.97;5.90;;;7.40;99.90;;;;;;5096116;27;20465;-70
2021/01/30 09:51:23;;;;;;;9.77;6.00;;;7.30;99.90;;;;;;5076407;28;20833;-70
2021/01/30 09:53:54;;;;;;;10.70;4.57;;;7.40;99.90;;;;;;5090317;27;20269;-68
2021/01/30 09:56:22;;;;;;;6.03;3.73;;;7.40;99.90;;;;;;5087676;28;20222;-71
2021/01/30 09:58:56;;;;;;;5.97;4.50;;;7.40;99.90;;;;;;5086275;27;20556;-71
2021/01/30 10:01:42;;;;;;;16.37;5.20;;;7.40;99.90;;;;;;5075784;28;20975;-69
2021/01/30 10:04:16;;;;;;;6.77;3.87;;;7.40;99.90;;;;;;5102835;28;20464;-69
2021/01/30 10:06:43;;;;;;;9.60;4.90;;;7.40;99.90;;;;;;5073223;28;20574;-68
2021/01/30 10:09:23;;;;;;;9.67;4.20;;;7.50;99.90;;;;;;5099709;28;20551;-68
2021/01/30 10:11:57;;;;;;;5.90;3.30;;;7.50;99.90;;;;;;5080811;27;20556;-72
2021/01/30 10:14:26;;;;;;;1.83;1.53;;;7.50;99.90;;;;;;5087661;28;20507;-70
2021/01/30 10:16:58;;;;;;;3.13;2.17;;;7.40;99.90;;;;;;5086373;27;20559;-68
2021/01/30 10:19:27;;;;;;;4.50;2.03;;;7.30;99.90;;;;;;5073396;28;21037;-69
2021/01/30 10:21:55;;;;;;;4.63;2.63;;;7.20;99.90;;;;;;5100965;27;20445;-69
2021/01/30 10:24:25;;;;;;;3.07;2.20;;;7.00;99.90;;;;;;5086857;28;20459;-68
2021/01/30 10:27:14;;;;;;;5.60;2.63;;;6.80;99.90;;;;;;5069052;27;20487;-70
2021/01/30 10:29:40;;;;;;;3.43;3.10;;;6.70;99.90;;;;;;5097713;27;20468;-70
2021/01/30 10:32:11;;;;;;;6.47;3.20;;;6.70;99.90;;;;;;5101606;27;20954;-69
2021/01/30 10:34:42;;;;;;;3.83;3.20;;;6.60;99.90;;;;;;5086646;28;20729;-70
2021/01/30 10:37:19;;;;;;;4.73;3.83;;;6.60;99.90;;;;;;5084964;28;20972;-69
2021/01/30 10:39:59;;;;;;;8.70;4.50;;;6.50;99.90;;;;;;5077769;28;20468;-70
2021/01/30 10:42:28;;;;;;;9.40;4.87;;;6.50;99.90;;;;;;5087857;28;20516;-68
2021/01/30 10:45:22;;;;;;;9.17;6.30;;;6.50;99.90;;;;;;5087445;28;20456;-68
2021/01/30 10:48:05;;;;;;;7.73;5.20;;;6.50;99.90;;;;;;5096339;27;21024;-69
2021/01/30 10:50:34;;;;;;;5.77;4.40;;;6.40;99.90;;;;;;5097723;28;20475;-68
2021/01/30 10:53:30;;;;;;;5.93;3.80;;;6.30;99.90;;;;;;5085857;27;20497;-68
2021/01/30 10:55:56;;;;;;;7.63;4.63;;;6.20;99.90;;;;;;5103978;27;20501;-69
2021/01/30 10:58:24;;;;;;;7.03;3.73;;;6.10;99.90;;;;;;5090771;28;20461;-69
2021/01/30 11:01:01;;;;;;;6.77;3.60;;;6.10;99.90;;;;;;5108139;27;20222;-69
2021/01/30 11:03:39;;;;;;;5.23;4.03;;;6.20;99.90;;;;;;5107769;28;20452;-68
2021/01/30 11:06:32;;;;;;;5.87;4.03;;;6.10;99.90;;;;;;5091127;28;20440;-68
2021/01/30 11:09:01;;;;;;;4.50;4.00;;;6.10;99.90;;;;;;5091393;27;20449;-69
2021/01/30 11:11:30;;;;;;;4.27;3.63;;;6.10;99.90;;;;;;5107005;28;20547;-68
2021/01/30 11:13:59;;;;;;;5.03;2.87;;;6.00;99.90;;;;;;5105277;27;20445;-69
2021/01/30 11:16:28;;;;;;;3.43;2.40;;;5.80;99.90;;;;;;5086207;28;20841;-69
2021/01/30 11:18:54;;;;;;;4.00;3.10;;;5.80;99.90;;;;;;5082230;27;20474;-68
2021/01/30 11:21:38;;;;;;;4.60;3.20;;;5.70;99.90;;;;;;5072105;28;20444;-69
2021/01/30 11:24:30;;;;;;;3.80;3.10;;;5.80;99.90;;;;;;5109387;27;20483;-68
2021/01/30 11:26:55;;;;;;;3.90;2.73;;;5.90;99.90;;;;;;5088470;28;20491;-68
2021/01/30 11:29:39;;;;;;;7.47;5.07;;;5.80;99.90;;;;;;5066690;28;21047;-68
2021/01/30 11:32:08;;;;;;;5.40;4.50;;;5.80;99.90;;;;;;5088994;28;20222;-68
2021/01/30 11:34:33;;;;;;;5.43;4.63;;;5.70;99.90;;;;;;5077115;28;20505;-69
2021/01/30 11:37:01;;;;;;;6.77;4.90;;;5.70;99.90;;;;;;5111601;27;20452;-68
2021/01/30 11:39:29;;;;;;;6.30;4.23;;;5.70;99.90;;;;;;5091697;28;20253;-67
2021/01/30 11:41:55;;;;;;;7.57;4.70;;;5.60;99.90;;;;;;5091364;27;20452;-69
2021/01/30 11:44:21;;;;;;;7.80;5.50;;;5.50;99.90;;;;;;5090101;28;20451;-69
2021/01/30 11:46:47;;;;;;;8.77;5.30;;;5.50;99.90;;;;;;5092071;28;20215;-68
2021/01/30 11:49:13;;;;;;;8.43;5.53;;;5.50;99.90;;;;;;5109891;28;20444;-69
2021/01/30 11:51:39;;;;;;;5.50;4.50;;;5.50;99.90;;;;;;5090496;28;21040;-69
2021/01/30 11:54:05;;;;;;;5.17;3.47;;;5.50;99.90;;;;;;5054816;28;20267;-69
2021/01/30 11:56:31;;;;;;;8.20;4.60;;;5.40;99.90;;;;;;5075267;28;20856;-69
2021/01/30 11:58:56;;;;;;;5.10;3.63;;;5.40;99.90;;;;;;5091881;27;20280;-68
2021/01/30 12:01:22;;;;;;;6.10;4.40;;;5.30;99.90;;;;;;5091048;28;20246;-68
2021/01/30 12:03:48;;;;;;;4.70;3.90;;;5.30;99.90;;;;;;5092013;28;20233;-69
2021/01/30 12:06:14;;;;;;;4.80;3.80;;;5.30;99.90;;;;;;5089638;28;20911;-68
2021/01/30 12:08:40;;;;;;;4.73;3.67;;;5.20;99.90;;;;;;5108503;28;20284;-69
2021/01/30 12:11:07;;;;;;;4.83;3.90;;;5.20;99.90;;;;;;5107785;27;20502;-69
2021/01/30 12:13:33;;;;;;;9.40;4.77;;;5.10;99.90;;;;;;5109849;28;20291;-69
2021/01/30 12:15:59;;;;;;;7.03;4.63;;;5.10;99.90;;;;;;5107456;28;20481;-69
2021/01/30 12:18:25;;;;;;;5.13;4.33;;;5.00;99.90;;;;;;5089066;28;20313;-68
2021/01/30 12:20:52;;;;;;;5.70;4.47;;;5.00;99.90;;;;;;5091052;27;20222;-69
2021/01/30 12:23:19;;;;;;;8.70;5.00;;;5.00;99.90;;;;;;5058145;28;20236;-69
2021/01/30 12:25:45;;;;;;;6.40;4.87;;;5.00;99.90;;;;;;5107211;27;20983;-69
2021/01/30 12:28:18;;;;;;;3.57;3.27;;;4.90;99.90;;;;;;5103257;28;20524;-69
2021/01/30 12:30:44;;;;;;;6.53;4.07;;;4.90;99.90;;;;;;5081252;28;20471;-69
2021/01/30 12:33:09;;;;;;;4.53;4.13;;;4.90;99.90;;;;;;5067892;28;20519;-69
2021/01/30 12:35:36;;;;;;;6.23;4.27;;;4.90;99.90;;;;;;5077907;28;20323;-69
2021/01/30 12:38:02;;;;;;;6.80;4.37;;;4.80;99.90;;;;;;5097748;27;20214;-68
2021/01/30 12:40:32;;;;;;;6.87;4.47;;;4.70;99.90;;;;;;5083394;28;20461;-70
2021/01/30 12:42:59;;;;;;;7.17;4.73;;;4.70;99.90;;;;;;5089305;28;20448;-69
2021/01/30 12:45:25;;;;;;;9.47;6.10;;;4.60;99.90;;;;;;5089387;28;20459;-69
2021/01/30 12:47:50;;;;;;;4.70;4.00;;;4.60;99.90;;;;;;5106717;27;20509;-70
2021/01/30 12:50:20;;;;;;;5.80;4.80;;;4.60;99.90;;;;;;5083211;28;20544;-70
2021/01/30 12:52:45;;;;;;;5.40;3.60;;;4.50;99.90;;;;;;5107235;27;20360;-69
2021/01/30 12:55:12;;;;;;;6.87;5.10;;;4.50;99.90;;;;;;5048778;28;20540;-69
2021/01/30 12:57:38;;;;;;;6.30;4.30;;;4.50;99.90;;;;;;5085747;28;20797;-69
2021/01/30 13:00:07;;;;;;;5.03;3.80;;;4.50;99.90;;;;;;5067503;27;20896;-68
2021/01/30 13:02:33;;;;;;;4.47;3.90;;;4.40;99.90;;;;;;5087948;28;20453;-69
2021/01/30 13:04:58;;;;;;;6.87;3.90;;;4.40;99.90;;;;;;5071947;27;20456;-68
2021/01/30 13:07:24;;;;;;;10.37;6.70;;;4.40;99.90;;;;;;5072408;28;20214;-69
2021/01/30 13:09:50;;;;;;;11.33;8.50;;;4.40;99.90;;;;;;5083747;27;20226;-69
2021/01/30 13:12:17;;;;;;;7.90;7.10;;;4.40;99.90;;;;;;5089137;28;20693;-69
2021/01/30 13:14:43;;;;;;;9.90;7.43;;;4.40;99.90;;;;;;5073329;28;20810;-68
2021/01/30 13:17:09;;;;;;;9.83;7.90;;;4.40;99.90;;;;;;5105446;28;20509;-68
2021/01/30 13:19:37;;;;;;;8.10;6.50;;;4.40;99.90;;;;;;5090031;28;20460;-70
2021/01/30 13:22:03;;;;;;;6.80;5.30;;;4.40;99.90;;;;;;5102804;27;20533;-68
2021/01/30 13:24:29;;;;;;;7.87;5.73;;;4.30;99.90;;;;;;5086454;28;20490;-69
2021/01/30 13:26:54;;;;;;;4.77;3.57;;;4.30;99.90;;;;;;5105129;28;20514;-69
2021/01/30 13:29:20;;;;;;;5.93;4.40;;;4.20;99.90;;;;;;5091198;28;20291;-69